Time;durP1;ratioP1;P1;durP2;ratioP2;P2;SDS_P1;SDS_P2;PMS_P1;PMS_P2;Temp;Humidity;BMP_temperature;BMP_pressure;BME280_temperature;BME280_humidity;BME280_pressure;Samples;Min_cycle;Max_cycle;Signal;HPM_P1;HPM_P2
2023/08/31 00:00:29;;;;;;;15.95;12.98;;;;;;;;;;10175899;28;20057;-71
2023/08/31 00:05:28;;;;;;;13.77;12.45;;;;;;;;;;10168899;28;20510;-70
2023/08/31 00:10:24;;;;;;;14.15;12.85;;;;;;;;;;10166409;28;20432;-70
2023/08/31 00:15:21;;;;;;;15.13;13.57;;;;;;;;;;10174229;28;20058;-70
2023/08/31 00:20:18;;;;;;;13.70;12.38;;;;;;;;;;10184231;28;20085;-71
2023/08/31 00:25:14;;;;;;;13.35;11.95;;;;;;;;;;10183017;28;20053;-70
2023/08/31 00:30:14;;;;;;;15.00;11.90;;;;;;;;;;10180061;28;20104;-71
2023/08/31 00:35:10;;;;;;;12.90;11.70;;;;;;;;;;10179787;28;20437;-70
2023/08/31 00:40:08;;;;;;;13.60;12.18;;;;;;;;;;10169916;28;20499;-70
2023/08/31 00:45:05;;;;;;;12.77;11.57;;;;;;;;;;10172876;28;20050;-72
2023/08/31 00:50:02;;;;;;;13.27;11.90;;;;;;;;;;10275143;23;20053;-70
2023/08/31 00:54:58;;;;;;;12.52;11.23;;;;;;;;;;10260537;28;20085;-70
2023/08/31 00:59:55;;;;;;;12.35;11.07;;;;;;;;;;10256386;28;20088;-71
2023/08/31 01:05:08;;;;;;;13.80;11.00;;;;;;;;;;10251789;28;20585;-71
2023/08/31 01:10:23;;;;;;;12.38;11.07;;;;;;;;;;10250804;28;20465;-71
2023/08/31 01:15:20;;;;;;;11.55;10.38;;;;;;;;;;10263024;28;20064;-71
2023/08/31 01:20:26;;;;;;;12.75;11.43;;;;;;;;;;10247178;28;20658;-69
2023/08/31 01:25:24;;;;;;;10.68;9.70;;;;;;;;;;10255134;28;20092;-69
2023/08/31 01:30:20;;;;;;;11.77;10.57;;;;;;;;;;10291610;28;20053;-69
2023/08/31 01:35:17;;;;;;;11.55;10.35;;;;;;;;;;10309159;28;20056;-70
2023/08/31 01:40:17;;;;;;;11.98;10.75;;;;;;;;;;10303639;28;20091;-70
2023/08/31 01:45:15;;;;;;;13.98;10.43;;;;;;;;;;10301866;28;20468;-70
2023/08/31 01:50:12;;;;;;;12.07;9.93;;;;;;;;;;10305012;28;20048;-70
2023/08/31 01:55:08;;;;;;;13.40;9.73;;;;;;;;;;10303529;28;20065;-70
2023/08/31 02:00:05;;;;;;;10.40;9.40;;;;;;;;;;10297320;28;20060;-70
2023/08/31 02:05:04;;;;;;;12.27;10.98;;;;;;;;;;10298549;28;20048;-69
2023/08/31 02:10:00;;;;;;;15.05;11.43;;;;;;;;;;10303640;28;20076;-70
2023/08/31 02:14:56;;;;;;;11.30;10.20;;;;;;;;;;10312047;28;20053;-70
2023/08/31 02:19:53;;;;;;;12.05;10.85;;;;;;;;;;10304769;28;20047;-70
2023/08/31 02:24:49;;;;;;;12.88;10.93;;;;;;;;;;10311650;28;20075;-69
2023/08/31 02:29:45;;;;;;;11.43;10.25;;;;;;;;;;10301291;28;20044;-69
2023/08/31 02:34:41;;;;;;;15.52;10.90;;;;;;;;;;10297388;28;20060;-70
2023/08/31 02:39:38;;;;;;;11.20;10.00;;;;;;;;;;10314700;28;20080;-70
2023/08/31 02:44:34;;;;;;;12.75;10.38;;;;;;;;;;10299913;28;20045;-70
2023/08/31 02:49:31;;;;;;;10.25;9.30;;;;;;;;;;10310628;28;20165;-69
2023/08/31 02:54:27;;;;;;;12.07;9.65;;;;;;;;;;10305465;28;20041;-70
2023/08/31 02:59:23;;;;;;;11.93;9.70;;;;;;;;;;10296874;28;20045;-69
2023/08/31 03:04:19;;;;;;;11.48;10.38;;;;;;;;;;10288866;28;20056;-69
2023/08/31 03:09:16;;;;;;;11.45;9.95;;;;;;;;;;10310278;28;20087;-70
2023/08/31 03:14:12;;;;;;;14.13;9.60;;;;;;;;;;10310758;28;20527;-71
2023/08/31 03:19:08;;;;;;;10.25;9.35;;;;;;;;;;10301725;28;20055;-70
2023/08/31 03:24:05;;;;;;;12.43;11.07;;;;;;;;;;10309279;28;20070;-70
2023/08/31 03:29:01;;;;;;;9.48;8.57;;;;;;;;;;10290973;28;20075;-70
2023/08/31 03:33:58;;;;;;;9.57;8.68;;;;;;;;;;10305426;28;20151;-71
2023/08/31 03:38:54;;;;;;;12.93;9.07;;;;;;;;;;10303083;28;20041;-71
2023/08/31 03:43:50;;;;;;;11.85;9.18;;;;;;;;;;10307681;28;20043;-70
2023/08/31 03:48:47;;;;;;;11.30;8.80;;;;;;;;;;10303861;28;20492;-70
2023/08/31 03:53:44;;;;;;;11.38;8.50;;;;;;;;;;10290162;28;20677;-70
2023/08/31 03:58:41;;;;;;;10.85;8.10;;;;;;;;;;10299003;28;20186;-70
2023/08/31 04:03:38;;;;;;;10.43;7.75;;;;;;;;;;10289046;28;20463;-70
2023/08/31 04:08:34;;;;;;;9.70;8.65;;;;;;;;;;10301334;28;20052;-69
2023/08/31 04:13:31;;;;;;;9.10;8.25;;;;;;;;;;10303756;28;20049;-68
2023/08/31 04:18:27;;;;;;;12.13;8.70;;;;;;;;;;10293060;28;20040;-69
2023/08/31 04:23:24;;;;;;;9.10;8.20;;;;;;;;;;10287806;28;20525;-69
2023/08/31 04:28:20;;;;;;;9.90;7.38;;;;;;;;;;10297480;28;20546;-69
2023/08/31 04:33:17;;;;;;;10.38;8.48;;;;;;;;;;10298318;28;20058;-71
2023/08/31 04:38:14;;;;;;;9.35;8.43;;;;;;;;;;10301622;28;20074;-70
2023/08/31 04:43:10;;;;;;;9.88;8.05;;;;;;;;;;10291393;28;20053;-72
2023/08/31 04:48:07;;;;;;;9.95;8.18;;;;;;;;;;10297113;28;20055;-71
2023/08/31 04:53:04;;;;;;;9.52;8.60;;;;;;;;;;10284734;28;20131;-72
2023/08/31 04:58:01;;;;;;;10.38;8.70;;;;;;;;;;10291736;28;20396;-74
2023/08/31 05:02:57;;;;;;;17.77;8.88;;;;;;;;;;10302667;28;20095;-71
2023/08/31 05:07:53;;;;;;;9.48;8.57;;;;;;;;;;10294455;28;20596;-74
2023/08/31 05:12:50;;;;;;;13.50;9.30;;;;;;;;;;10295356;28;21543;-73
2023/08/31 05:22:57;;;;;;;9.60;8.07;;;;;;;;;;10106113;26;20038;-73
2023/08/31 05:27:53;;;;;;;10.25;8.18;;;;;;;;;;10233088;28;20395;-72
2023/08/31 05:32:50;;;;;;;9.07;7.97;;;;;;;;;;10268519;28;20045;-73
2023/08/31 05:37:46;;;;;;;10.25;8.85;;;;;;;;;;10267825;28;20047;-73
2023/08/31 05:42:42;;;;;;;9.35;8.45;;;;;;;;;;10268521;28;20139;-73
2023/08/31 05:53:11;;;;;;;8.85;7.95;;;;;;;;;;10270669;23;20046;-71
2023/08/31 05:58:08;;;;;;;9.75;8.75;;;;;;;;;;10241157;28;20041;-71
2023/08/31 06:03:05;;;;;;;13.85;8.52;;;;;;;;;;10224695;28;20053;-73
2023/08/31 06:08:20;;;;;;;9.85;8.90;;;;;;;;;;10334525;22;20047;-70
2023/08/31 06:13:16;;;;;;;10.38;8.65;;;;;;;;;;10227471;28;20085;-73
2023/08/31 06:18:14;;;;;;;11.02;8.02;;;;;;;;;;10214097;28;20050;-71
2023/08/31 06:23:11;;;;;;;11.35;7.50;;;;;;;;;;10234042;28;20128;-72
2023/08/31 06:28:11;;;;;;;10.32;7.85;;;;;;;;;;10230300;28;20148;-73
2023/08/31 06:33:07;;;;;;;8.73;7.53;;;;;;;;;;10229366;28;20065;-73
2023/08/31 06:38:12;;;;;;;12.18;8.52;;;;;;;;;;10281194;22;20059;-73
2023/08/31 06:43:09;;;;;;;8.93;7.78;;;;;;;;;;10309930;28;20048;-72
2023/08/31 06:48:06;;;;;;;8.23;7.35;;;;;;;;;;10320811;28;20044;-73
2023/08/31 06:53:03;;;;;;;8.13;7.53;;;;;;;;;;10291620;28;20059;-72
2023/08/31 07:03:49;;;;;;;7.65;6.95;;;;;;;;;;10254166;28;20517;-72
2023/08/31 07:08:47;;;;;;;9.65;7.50;;;;;;;;;;10259627;28;20457;-73
2023/08/31 07:13:43;;;;;;;9.40;7.13;;;;;;;;;;10251454;28;20456;-73
2023/08/31 07:18:41;;;;;;;8.45;7.43;;;;;;;;;;10261892;28;20060;-74
2023/08/31 07:23:38;;;;;;;10.23;7.07;;;;;;;;;;10257059;28;20053;-73
2023/08/31 07:29:25;;;;;;;9.18;6.72;;;;;;;;;;10387724;22;20162;-73
2023/08/31 07:35:26;;;;;;;7.68;7.03;;;;;;;;;;10072934;28;20051;-73
2023/08/31 07:40:23;;;;;;;7.93;6.80;;;;;;;;;;10242984;28;20076;-73
2023/08/31 07:45:19;;;;;;;7.20;6.60;;;;;;;;;;10258720;28;20049;-73
2023/08/31 07:50:16;;;;;;;10.25;6.43;;;;;;;;;;10297630;23;20237;-73
2023/08/31 07:55:12;;;;;;;7.03;6.32;;;;;;;;;;10306171;28;20569;-73
2023/08/31 08:00:20;;;;;;;9.07;5.90;;;;;;;;;;10459924;22;20613;-73
2023/08/31 08:11:53;;;;;;;8.20;6.22;;;;;;;;;;10113752;28;20058;-71
2023/08/31 08:22:54;;;;;;;7.38;6.60;;;;;;;;;;10139358;26;20053;-72
2023/08/31 08:27:50;;;;;;;8.02;6.93;;;;;;;;;;10231967;28;20053;-72
2023/08/31 08:32:47;;;;;;;8.10;6.72;;;;;;;;;;10220865;28;20056;-72
2023/08/31 08:42:54;;;;;;;8.35;7.07;;;;;;;;;;10274000;22;20139;-72
2023/08/31 08:47:52;;;;;;;6.63;6.07;;;;;;;;;;10287296;28;20090;-72
2023/08/31 08:52:48;;;;;;;6.72;6.13;;;;;;;;;;10261863;28;20059;-72
2023/08/31 09:02:57;;;;;;;8.93;6.55;;;;;;;;;;10391224;23;20505;-72
2023/08/31 09:13:54;;;;;;;12.32;6.93;;;;;;;;;;10415647;23;20048;-71
2023/08/31 09:24:17;;;;;;;10.90;7.70;;;;;;;;;;10227366;28;20049;-71
2023/08/31 09:29:14;;;;;;;7.25;6.53;;;;;;;;;;10235512;28;20080;-71
2023/08/31 09:34:11;;;;;;;8.13;7.32;;;;;;;;;;10226807;28;20417;-71
2023/08/31 09:39:09;;;;;;;7.82;7.18;;;;;;;;;;10234599;22;20068;-71
2023/08/31 09:44:15;;;;;;;7.20;6.50;;;;;;;;;;10218844;28;20060;-71
2023/08/31 09:54:23;;;;;;;9.77;7.30;;;;;;;;;;10185070;28;20070;-71
2023/08/31 09:59:20;;;;;;;8.02;6.82;;;;;;;;;;10244199;22;20396;-71
2023/08/31 10:04:17;;;;;;;7.13;6.43;;;;;;;;;;10260850;28;20586;-71
2023/08/31 10:09:13;;;;;;;11.45;9.98;;;;;;;;;;10252118;28;20631;-71
2023/08/31 10:14:11;;;;;;;7.22;6.53;;;;;;;;;;10221440;28;20080;-71
2023/08/31 10:19:07;;;;;;;9.38;6.72;;;;;;;;;;10214323;28;20076;-72
2023/08/31 10:24:04;;;;;;;7.93;7.25;;;;;;;;;;10225001;28;20046;-72
2023/08/31 10:29:02;;;;;;;8.15;7.28;;;;;;;;;;10233231;28;20049;-72
2023/08/31 10:34:09;;;;;;;7.70;6.97;;;;;;;;;;10224830;28;20080;-72
2023/08/31 10:39:16;;;;;;;8.07;7.45;;;;;;;;;;10221206;28;20049;-72
2023/08/31 10:44:19;;;;;;;9.73;7.60;;;;;;;;;;10232085;28;20594;-72
2023/08/31 10:49:17;;;;;;;8.15;7.32;;;;;;;;;;10212683;28;20061;-72
2023/08/31 10:54:19;;;;;;;7.65;6.93;;;;;;;;;;10226715;28;20049;-72
2023/08/31 10:59:16;;;;;;;8.30;7.70;;;;;;;;;;10216490;28;20050;-72
2023/08/31 11:04:12;;;;;;;8.80;8.00;;;;;;;;;;10211435;28;20042;-72
2023/08/31 11:09:17;;;;;;;8.98;8.18;;;;;;;;;;10283348;22;20160;-73
2023/08/31 11:14:15;;;;;;;9.20;8.02;;;;;;;;;;10244645;28;20045;-73
2023/08/31 11:19:12;;;;;;;8.10;7.25;;;;;;;;;;10262668;28;20053;-73
2023/08/31 11:24:08;;;;;;;7.55;6.90;;;;;;;;;;10219505;28;20061;-72
2023/08/31 11:29:07;;;;;;;8.20;7.50;;;;;;;;;;10219006;28;20060;-72
2023/08/31 11:34:04;;;;;;;7.88;7.20;;;;;;;;;;10223764;28;20042;-72
2023/08/31 11:39:01;;;;;;;7.78;7.00;;;;;;;;;;10235721;28;20061;-72
2023/08/31 11:43:57;;;;;;;8.02;7.30;;;;;;;;;;10249450;28;20562;-72
2023/08/31 11:48:54;;;;;;;7.50;6.90;;;;;;;;;;10246109;28;20076;-72
2023/08/31 11:53:50;;;;;;;6.45;5.85;;;;;;;;;;10226620;28;20069;-73
2023/08/31 12:04:23;;;;;;;6.10;5.50;;;;;;;;;;10247156;28;20056;-72
2023/08/31 12:09:20;;;;;;;6.38;5.40;;;;;;;;;;10261343;28;20049;-72
2023/08/31 12:14:20;;;;;;;9.57;6.10;;;;;;;;;;10261423;28;20106;-72
2023/08/31 12:19:17;;;;;;;5.72;5.22;;;;;;;;;;10258460;28;20099;-71
2023/08/31 12:24:15;;;;;;;6.28;5.65;;;;;;;;;;10259533;28;20125;-72
2023/08/31 12:29:11;;;;;;;5.70;5.20;;;;;;;;;;10256430;28;20520;-71
2023/08/31 12:34:08;;;;;;;6.75;5.60;;;;;;;;;;10246776;28;20741;-71
2023/08/31 12:44:09;;;;;;;5.80;5.30;;;;;;;;;;9450366;26;20060;-72
2023/08/31 12:55:17;;;;;;;10.13;6.15;;;;;;;;;;10241689;28;20056;-71
2023/08/31 13:00:14;;;;;;;7.65;5.40;;;;;;;;;;10294782;28;20507;-71
2023/08/31 13:05:11;;;;;;;5.05;4.55;;;;;;;;;;10306516;28;20538;-71
2023/08/31 13:10:07;;;;;;;6.85;4.80;;;;;;;;;;10282511;28;20069;-69
2023/08/31 13:15:04;;;;;;;5.97;5.40;;;;;;;;;;10306544;28;20508;-70
2023/08/31 13:20:00;;;;;;;5.65;5.15;;;;;;;;;;10289275;28;20572;-70
2023/08/31 13:24:57;;;;;;;4.95;4.22;;;;;;;;;;10294304;28;20127;-70
2023/08/31 13:34:58;;;;;;;4.70;4.20;;;;;;;;;;9751783;26;20041;-71
2023/08/31 13:39:55;;;;;;;4.97;3.97;;;;;;;;;;10215521;28;20057;-71
2023/08/31 13:44:52;;;;;;;4.15;3.78;;;;;;;;;;10223759;28;20489;-72
2023/08/31 13:49:48;;;;;;;4.53;4.13;;;;;;;;;;10227201;28;20116;-71
2023/08/31 13:54:45;;;;;;;5.55;4.53;;;;;;;;;;10223634;28;20049;-71
2023/08/31 13:59:41;;;;;;;7.80;4.60;;;;;;;;;;10213706;28;20481;-72
2023/08/31 14:04:37;;;;;;;3.97;3.58;;;;;;;;;;10222657;28;20045;-72
2023/08/31 14:09:34;;;;;;;4.20;3.80;;;;;;;;;;10245610;22;20079;-72
2023/08/31 14:14:30;;;;;;;4.68;3.88;;;;;;;;;;10261328;28;20053;-72
2023/08/31 14:19:26;;;;;;;4.30;3.90;;;;;;;;;;10303832;23;20049;-72
2023/08/31 14:24:23;;;;;;;4.78;3.70;;;;;;;;;;10264698;28;20542;-71
2023/08/31 14:29:19;;;;;;;4.22;3.83;;;;;;;;;;10267319;28;20053;-72
2023/08/31 14:34:16;;;;;;;6.18;3.95;;;;;;;;;;10268059;28;20057;-72
2023/08/31 14:44:23;;;;;;;4.68;4.28;;;;;;;;;;8456170;26;20057;-72
2023/08/31 14:49:21;;;;;;;9.95;4.22;;;;;;;;;;10222865;28;20058;-73
2023/08/31 14:54:18;;;;;;;5.65;3.90;;;;;;;;;;10195780;28;20061;-73
2023/08/31 14:59:15;;;;;;;4.80;4.18;;;;;;;;;;10359520;22;20620;-72
2023/08/31 15:04:11;;;;;;;8.30;3.85;;;;;;;;;;10265742;28;20516;-72
2023/08/31 15:09:08;;;;;;;8.55;4.20;;;;;;;;;;10261307;28;20579;-72
2023/08/31 15:14:05;;;;;;;4.82;4.43;;;;;;;;;;10232338;28;20110;-71
2023/08/31 15:19:02;;;;;;;5.50;4.32;;;;;;;;;;10255317;28;20091;-71
2023/08/31 15:23:58;;;;;;;4.50;4.03;;;;;;;;;;10262079;28;20045;-72
2023/08/31 15:28:54;;;;;;;5.07;4.40;;;;;;;;;;10264685;28;20064;-72
2023/08/31 15:33:51;;;;;;;5.05;4.57;;;;;;;;;;10263038;28;20087;-72
2023/08/31 15:38:48;;;;;;;4.68;4.22;;;;;;;;;;10266490;28;20562;-72
2023/08/31 15:43:45;;;;;;;4.90;4.40;;;;;;;;;;10259634;28;20041;-72
2023/08/31 15:53:47;;;;;;;5.05;4.55;;;;;;;;;;9763746;22;20063;-72
2023/08/31 16:04:07;;;;;;;5.18;4.68;;;;;;;;;;9455254;26;20054;-72
2023/08/31 16:09:07;;;;;;;8.57;5.32;;;;;;;;;;10214140;28;20045;-73
2023/08/31 16:14:04;;;;;;;6.38;5.13;;;;;;;;;;10228159;28;20423;-74
2023/08/31 16:24:11;;;;;;;5.70;5.20;;;;;;;;;;9913624;26;20647;-74
2023/08/31 16:29:09;;;;;;;5.95;5.45;;;;;;;;;;10188251;28;20533;-73
2023/08/31 16:34:05;;;;;;;6.25;4.63;;;;;;;;;;10172728;28;20061;-73
2023/08/31 16:39:03;;;;;;;4.75;4.35;;;;;;;;;;10180847;28;20041;-73
2023/08/31 16:44:00;;;;;;;5.85;4.40;;;;;;;;;;10182484;28;20129;-73
2023/08/31 16:55:04;;;;;;;4.95;4.50;;;;;;;;;;10125079;28;20137;-73
2023/08/31 17:00:01;;;;;;;11.20;10.02;;;;;;;;;;10180831;28;20398;-73
2023/08/31 17:04:57;;;;;;;6.35;5.75;;;;;;;;;;10181986;28;20058;-73
2023/08/31 17:09:54;;;;;;;4.88;4.38;;;;;;;;;;10178321;28;20046;-73
2023/08/31 17:14:50;;;;;;;5.03;4.53;;;;;;;;;;10173265;28;20054;-72
2023/08/31 17:19:50;;;;;;;5.20;4.68;;;;;;;;;;10170771;28;20081;-72
2023/08/31 17:24:46;;;;;;;5.03;4.53;;;;;;;;;;10169875;28;20066;-72
2023/08/31 17:29:42;;;;;;;5.15;4.70;;;;;;;;;;10175138;28;20046;-72
2023/08/31 17:34:39;;;;;;;4.75;4.35;;;;;;;;;;10170821;28;20056;-73
2023/08/31 17:39:35;;;;;;;7.47;4.20;;;;;;;;;;10173314;28;20042;-72
2023/08/31 17:44:31;;;;;;;5.18;4.45;;;;;;;;;;10163131;28;20112;-74
2023/08/31 17:49:28;;;;;;;4.70;4.22;;;;;;;;;;10185849;28;20061;-73
2023/08/31 17:54:24;;;;;;;5.05;4.55;;;;;;;;;;10204923;28;20107;-73
2023/08/31 17:59:22;;;;;;;6.30;4.65;;;;;;;;;;10213636;28;20132;-73
2023/08/31 18:04:19;;;;;;;6.20;5.03;;;;;;;;;;10214466;28;20051;-73
2023/08/31 18:09:15;;;;;;;5.82;5.25;;;;;;;;;;10221931;28;20060;-73
2023/08/31 18:14:12;;;;;;;5.18;4.68;;;;;;;;;;10193224;28;20088;-73
2023/08/31 18:25:45;;;;;;;8.10;4.70;;;;;;;;;;10024661;28;20140;-74
2023/08/31 18:30:41;;;;;;;6.53;5.07;;;;;;;;;;10061662;28;20115;-73
2023/08/31 18:35:37;;;;;;;6.47;5.00;;;;;;;;;;10054113;28;20047;-75
2023/08/31 18:40:35;;;;;;;5.53;4.97;;;;;;;;;;10179166;22;20092;-73
2023/08/31 18:45:31;;;;;;;5.50;5.00;;;;;;;;;;10254513;28;20410;-73
2023/08/31 18:50:28;;;;;;;5.90;4.40;;;;;;;;;;10256519;28;20056;-72
2023/08/31 18:55:24;;;;;;;5.15;4.60;;;;;;;;;;10251039;28;20045;-73
2023/08/31 19:00:22;;;;;;;5.55;4.65;;;;;;;;;;10251856;28;20080;-73
2023/08/31 19:05:19;;;;;;;6.32;4.47;;;;;;;;;;10256101;28;20531;-72
2023/08/31 19:10:15;;;;;;;9.18;5.72;;;;;;;;;;10259402;28;20068;-72
2023/08/31 19:15:12;;;;;;;6.53;5.80;;;;;;;;;;10267065;28;20114;-72
2023/08/31 19:20:09;;;;;;;8.20;6.53;;;;;;;;;;10258366;28;20106;-72
2023/08/31 19:25:05;;;;;;;7.40;5.47;;;;;;;;;;10252474;28;20041;-72
2023/08/31 19:30:02;;;;;;;6.68;5.38;;;;;;;;;;10263166;28;20053;-73
2023/08/31 19:35:00;;;;;;;8.82;5.65;;;;;;;;;;10244545;28;20088;-73
2023/08/31 19:39:59;;;;;;;5.68;5.18;;;;;;;;;;10266930;28;20048;-73
2023/08/31 19:44:56;;;;;;;6.00;5.43;;;;;;;;;;10262422;28;20068;-73
2023/08/31 19:49:52;;;;;;;5.95;5.35;;;;;;;;;;10259993;28;20048;-72
2023/08/31 19:54:49;;;;;;;8.82;5.70;;;;;;;;;;10253220;28;20464;-72
2023/08/31 19:59:46;;;;;;;6.68;5.45;;;;;;;;;;10376978;22;20145;-70
2023/08/31 20:04:42;;;;;;;7.20;5.55;;;;;;;;;;10261067;28;20176;-71
2023/08/31 20:09:39;;;;;;;6.75;5.65;;;;;;;;;;10255755;22;20053;-71
2023/08/31 20:14:36;;;;;;;5.75;5.25;;;;;;;;;;10187269;28;20568;-71
2023/08/31 20:19:32;;;;;;;6.60;5.25;;;;;;;;;;10185964;28;20097;-69
2023/08/31 20:24:28;;;;;;;9.32;5.10;;;;;;;;;;10187494;28;20111;-70
2023/08/31 20:29:25;;;;;;;7.70;5.07;;;;;;;;;;10185320;28;20104;-70
2023/08/31 20:34:21;;;;;;;5.47;4.78;;;;;;;;;;10187945;28;20413;-69
2023/08/31 20:39:18;;;;;;;6.40;5.07;;;;;;;;;;10186564;28;20061;-70
2023/08/31 20:44:14;;;;;;;6.68;5.03;;;;;;;;;;10185304;28;20053;-69
2023/08/31 20:49:10;;;;;;;5.65;4.90;;;;;;;;;;10186970;28;20058;-68
2023/08/31 20:54:07;;;;;;;7.03;5.43;;;;;;;;;;10187972;28;20054;-70
2023/08/31 20:59:05;;;;;;;6.88;4.95;;;;;;;;;;10167940;28;20104;-72
2023/08/31 21:04:02;;;;;;;5.32;4.80;;;;;;;;;;10186452;28;20057;-71
2023/08/31 21:08:59;;;;;;;5.75;4.70;;;;;;;;;;10186322;28;20046;-71
2023/08/31 21:13:55;;;;;;;5.63;4.88;;;;;;;;;;10183730;28;20057;-71
2023/08/31 21:18:51;;;;;;;6.40;4.50;;;;;;;;;;10184104;28;20070;-71
2023/08/31 21:23:48;;;;;;;5.07;4.47;;;;;;;;;;10187159;28;20050;-71
2023/08/31 21:28:44;;;;;;;6.88;5.22;;;;;;;;;;10186600;28;20077;-72
2023/08/31 21:33:41;;;;;;;4.70;4.28;;;;;;;;;;10186393;28;20070;-71
2023/08/31 21:38:37;;;;;;;7.22;5.18;;;;;;;;;;10183503;28;20045;-71
2023/08/31 21:43:34;;;;;;;6.50;4.85;;;;;;;;;;10186719;28;20050;-71
2023/08/31 21:48:30;;;;;;;7.13;4.68;;;;;;;;;;10181019;28;20046;-71
2023/08/31 21:53:27;;;;;;;6.05;4.80;;;;;;;;;;10183407;28;20395;-70
2023/08/31 21:58:23;;;;;;;8.00;4.57;;;;;;;;;;10179281;28;20423;-72
2023/08/31 22:03:19;;;;;;;6.18;4.65;;;;;;;;;;10182288;28;20069;-72
2023/08/31 22:08:16;;;;;;;6.35;4.90;;;;;;;;;;10184454;28;20077;-71
2023/08/31 22:13:13;;;;;;;5.65;4.65;;;;;;;;;;10185619;28;20054;-71
2023/08/31 22:18:09;;;;;;;7.18;4.43;;;;;;;;;;10185762;28;20050;-71
2023/08/31 22:23:06;;;;;;;6.47;4.90;;;;;;;;;;10185147;28;20513;-72
2023/08/31 22:39:26;;;;;;;8.68;4.80;;;;;;;;;;10102600;28;20284;-72
2023/08/31 22:44:31;;;;;;;5.53;4.93;;;;;;;;;;10132547;28;20059;-71
2023/08/31 22:49:28;;;;;;;6.75;5.28;;;;;;;;;;10196028;23;20060;-70
2023/08/31 22:54:24;;;;;;;7.60;4.80;;;;;;;;;;10267126;28;20057;-71
2023/08/31 22:59:20;;;;;;;7.20;5.15;;;;;;;;;;10252361;28;20505;-71
2023/08/31 23:04:17;;;;;;;5.88;4.60;;;;;;;;;;10218051;28;20046;-72
2023/08/31 23:09:13;;;;;;;9.40;5.30;;;;;;;;;;10230787;28;20049;-72
2023/08/31 23:14:10;;;;;;;7.63;4.88;;;;;;;;;;10232933;28;20127;-72
2023/08/31 23:19:06;;;;;;;5.85;4.60;;;;;;;;;;10233898;28;20049;-72
2023/08/31 23:24:02;;;;;;;6.28;5.13;;;;;;;;;;10240309;28;20049;-73
2023/08/31 23:28:59;;;;;;;5.95;5.25;;;;;;;;;;10235315;28;20049;-73
2023/08/31 23:33:55;;;;;;;5.50;5.00;;;;;;;;;;10232260;28;20110;-72
2023/08/31 23:38:52;;;;;;;7.80;4.65;;;;;;;;;;10241771;28;20049;-73
2023/08/31 23:43:48;;;;;;;10.20;5.00;;;;;;;;;;10227629;28;20463;-71
2023/08/31 23:48:45;;;;;;;7.00;5.10;;;;;;;;;;10232700;28;20049;-71
2023/08/31 23:53:41;;;;;;;6.10;4.90;;;;;;;;;;10236107;28;20501;-73
2023/08/31 23:58:38;;;;;;;9.70;5.43;;;;;;;;;;10216570;28;20286;-73
